Time;durP1;ratioP1;P1;durP2;ratioP2;P2;SDS_P1;SDS_P2;PMS_P1;PMS_P2;Temp;Humidity;BMP_temperature;BMP_pressure;BME280_temperature;BME280_humidity;BME280_pressure;Samples;Min_cycle;Max_cycle;Signal;HPM_P1;HPM_P2
2022/11/15 00:00:51;;;;;;;18.80;14.45;;;14.00;92.20;;;;;;4991655;28;20034;-77
2022/11/15 00:03:19;;;;;;;18.95;14.30;;;14.00;92.20;;;;;;4992927;28;20033;-77
2022/11/15 00:05:45;;;;;;;22.90;14.63;;;14.00;92.10;;;;;;4993209;28;20040;-78
2022/11/15 00:08:11;;;;;;;17.95;13.95;;;14.00;92.10;;;;;;4989843;28;20027;-77
2022/11/15 00:10:37;;;;;;;20.58;15.02;;;14.00;92.10;;;;;;4993334;28;20034;-76
2022/11/15 00:13:07;;;;;;;20.60;16.00;;;14.00;92.10;;;;;;4991735;28;20033;-77
2022/11/15 00:15:37;;;;;;;19.48;15.02;;;14.00;92.10;;;;;;4993534;28;20142;-76
2022/11/15 00:18:04;;;;;;;20.88;14.70;;;14.00;92.10;;;;;;4992596;28;20030;-76
2022/11/15 00:20:30;;;;;;;22.95;15.82;;;13.90;92.10;;;;;;4992932;28;20027;-76
2022/11/15 00:22:56;;;;;;;22.90;15.02;;;13.90;92.10;;;;;;4993334;28;20031;-77
2022/11/15 00:25:22;;;;;;;22.40;16.17;;;13.90;92.10;;;;;;4992467;28;20493;-76
2022/11/15 00:27:47;;;;;;;19.90;15.68;;;13.80;92.10;;;;;;4991300;28;20484;-76
2022/11/15 00:30:13;;;;;;;18.52;15.25;;;13.90;92.20;;;;;;4992657;28;20593;-76
2022/11/15 00:32:39;;;;;;;19.95;14.95;;;13.70;91.90;;;;;;4992642;28;20061;-75
2022/11/15 00:35:05;;;;;;;21.95;15.25;;;13.90;92.10;;;;;;4992699;28;20498;-76
2022/11/15 00:37:30;;;;;;;19.58;15.32;;;13.90;92.10;;;;;;4992008;28;20027;-76
2022/11/15 00:39:56;;;;;;;20.88;15.57;;;13.90;92.00;;;;;;4990753;28;20100;-76
2022/11/15 00:42:22;;;;;;;18.75;15.07;;;13.90;91.90;;;;;;4991329;28;20030;-76
2022/11/15 00:44:47;;;;;;;21.83;15.77;;;13.90;91.90;;;;;;4982866;28;20034;-77
2022/11/15 00:47:13;;;;;;;24.70;15.85;;;13.90;91.90;;;;;;4991186;28;20105;-77
2022/11/15 00:49:39;;;;;;;20.48;16.10;;;13.80;91.90;;;;;;4988769;28;20030;-77
2022/11/15 00:52:04;;;;;;;21.83;17.27;;;13.80;91.90;;;;;;4990795;28;20030;-78
2022/11/15 00:54:30;;;;;;;19.67;15.80;;;13.80;92.00;;;;;;4990355;28;20042;-81
2022/11/15 00:56:56;;;;;;;22.58;16.85;;;13.70;92.00;;;;;;4989404;28;20548;-78
2022/11/15 00:59:22;;;;;;;22.83;17.17;;;13.70;92.10;;;;;;4992479;28;20058;-78
2022/11/15 01:01:47;;;;;;;20.10;15.70;;;13.70;92.10;;;;;;4990114;28;20026;-78
2022/11/15 01:04:14;;;;;;;21.13;16.33;;;13.70;92.10;;;;;;4991747;28;20479;-78
2022/11/15 01:06:39;;;;;;;20.30;15.63;;;13.70;92.10;;;;;;4992731;28;20026;-76
2022/11/15 01:09:05;;;;;;;19.70;15.85;;;13.70;92.10;;;;;;4992744;28;20037;-77
2022/11/15 01:11:31;;;;;;;19.58;16.52;;;13.70;92.00;;;;;;4989063;28;20494;-77
2022/11/15 01:13:56;;;;;;;21.48;16.13;;;13.70;92.00;;;;;;4991908;28;20039;-77
2022/11/15 01:16:22;;;;;;;20.23;15.38;;;13.70;92.00;;;;;;4990237;28;20058;-77
2022/11/15 01:18:48;;;;;;;21.00;15.45;;;13.70;91.90;;;;;;4994537;28;20057;-76
2022/11/15 01:21:17;;;;;;;22.02;16.25;;;13.70;91.90;;;;;;4994063;28;20039;-77
2022/11/15 01:23:43;;;;;;;26.83;16.45;;;13.70;91.90;;;;;;4996506;28;20074;-77
2022/11/15 01:26:12;;;;;;;22.98;16.00;;;13.70;91.90;;;;;;4990676;28;20022;-73
2022/11/15 01:28:39;;;;;;;20.42;16.08;;;13.70;91.90;;;;;;4996816;28;20022;-73
2022/11/15 01:31:11;;;;;;;20.40;15.82;;;13.70;91.80;;;;;;4996081;28;20051;-73
2022/11/15 01:33:36;;;;;;;21.80;16.83;;;13.70;91.80;;;;;;4992964;28;20780;-73
2022/11/15 01:36:08;;;;;;;20.52;15.90;;;13.70;91.70;;;;;;4994518;28;20663;-73
2022/11/15 01:38:34;;;;;;;20.38;15.60;;;13.60;91.80;;;;;;4986897;28;20034;-73
2022/11/15 01:41:00;;;;;;;21.30;16.30;;;13.60;91.80;;;;;;4995795;28;20037;-73
2022/11/15 01:43:32;;;;;;;20.73;16.13;;;13.60;91.80;;;;;;4994391;28;20040;-73
2022/11/15 01:46:37;;;;;;;22.75;16.63;;;13.60;91.90;;;;;;4994951;28;20110;-74
2022/11/15 01:49:11;;;;;;;20.13;16.27;;;13.50;92.00;;;;;;4978526;28;20038;-73
2022/11/15 01:51:37;;;;;;;21.08;16.65;;;13.50;92.00;;;;;;4993214;28;20031;-73
2022/11/15 01:54:10;;;;;;;23.15;17.10;;;13.50;92.10;;;;;;4995200;28;20121;-74
2022/11/15 01:56:46;;;;;;;23.52;17.90;;;13.40;92.10;;;;;;4989364;28;20459;-74
2022/11/15 01:59:12;;;;;;;33.35;21.10;;;13.40;92.10;;;;;;4993994;28;20049;-74
2022/11/15 02:01:38;;;;;;;21.92;16.85;;;13.30;92.10;;;;;;4987647;28;20041;-74
2022/11/15 02:04:28;;;;;;;21.95;17.02;;;13.30;92.10;;;;;;4993506;28;20042;-73
2022/11/15 02:06:54;;;;;;;22.15;17.60;;;13.20;92.20;;;;;;4990507;28;20034;-72
2022/11/15 02:09:19;;;;;;;23.02;18.08;;;13.20;92.30;;;;;;4994365;28;20030;-73
2022/11/15 02:11:47;;;;;;;24.20;18.48;;;13.10;92.30;;;;;;4992622;28;20015;-73
2022/11/15 02:14:15;;;;;;;23.75;17.70;;;13.10;92.50;;;;;;4990658;28;20038;-74
2022/11/15 02:17:03;;;;;;;22.45;17.77;;;13.20;92.40;;;;;;4994191;28;20030;-74
2022/11/15 02:19:32;;;;;;;23.70;17.90;;;13.10;92.50;;;;;;4993145;28;20038;-73
2022/11/15 02:22:16;;;;;;;21.15;17.25;;;13.10;92.50;;;;;;4993893;28;20022;-73
2022/11/15 02:25:03;;;;;;;25.48;17.10;;;13.10;92.50;;;;;;4988589;28;20041;-74
2022/11/15 02:27:29;;;;;;;22.30;17.60;;;13.20;92.40;;;;;;4986443;28;20026;-74
2022/11/15 02:30:24;;;;;;;23.95;17.05;;;13.10;92.20;;;;;;4990392;28;20041;-74
2022/11/15 02:32:57;;;;;;;28.77;20.95;;;13.10;92.20;;;;;;4961881;28;20054;-74
2022/11/15 02:35:34;;;;;;;25.55;18.65;;;12.90;92.30;;;;;;4992739;28;20030;-73
2022/11/15 02:38:07;;;;;;;23.02;17.00;;;12.90;92.40;;;;;;4989604;28;20372;-73
2022/11/15 02:40:55;;;;;;;24.55;18.35;;;12.80;92.50;;;;;;4993936;28;20084;-73
2022/11/15 02:43:56;;;;;;;23.05;16.90;;;12.70;92.40;;;;;;4986403;28;20376;-73
2022/11/15 02:49:19;;;;;;;29.30;22.95;;;12.70;92.50;;;;;;4993143;28;20097;-74
2022/11/15 02:51:49;;;;;;;25.13;19.20;;;12.60;92.40;;;;;;4992703;28;20023;-74
2022/11/15 02:54:22;;;;;;;30.10;22.55;;;12.60;92.50;;;;;;4977333;28;20454;-74
2022/11/15 02:56:50;;;;;;;24.17;18.02;;;12.50;92.30;;;;;;4992417;28;20023;-74
2022/11/15 02:59:54;;;;;;;25.17;19.05;;;12.50;92.50;;;;;;4993812;28;20128;-74
2022/11/15 03:02:25;;;;;;;28.38;20.48;;;12.50;92.50;;;;;;4992151;28;20038;-73
2022/11/15 03:05:21;;;;;;;27.08;19.98;;;12.60;92.30;;;;;;4994136;28;20105;-73
2022/11/15 03:08:22;;;;;;;25.13;18.65;;;12.50;92.20;;;;;;4988325;28;20027;-73
2022/11/15 03:11:13;;;;;;;29.88;20.95;;;12.50;92.20;;;;;;4980115;28;20126;-74
2022/11/15 03:13:51;;;;;;;24.02;19.02;;;12.40;92.30;;;;;;4994271;28;20032;-74
2022/11/15 03:16:52;;;;;;;24.88;18.77;;;12.40;92.40;;;;;;4993690;28;20495;-74
2022/11/15 03:19:36;;;;;;;26.35;20.10;;;12.40;92.40;;;;;;4966630;28;20129;-74
2022/11/15 03:22:05;;;;;;;27.80;19.45;;;12.40;92.50;;;;;;4989845;28;20049;-74
2022/11/15 03:24:34;;;;;;;26.27;19.08;;;12.40;92.40;;;;;;4994058;28;20505;-74
2022/11/15 03:27:01;;;;;;;27.30;20.38;;;12.40;92.30;;;;;;4994203;28;20026;-74
2022/11/15 03:29:35;;;;;;;26.60;18.92;;;12.40;92.40;;;;;;4993124;28;20031;-74
2022/11/15 03:32:09;;;;;;;26.02;19.90;;;12.40;92.40;;;;;;4994177;28;20070;-74
2022/11/15 03:34:56;;;;;;;25.40;19.48;;;12.50;92.40;;;;;;4989128;28;20041;-74
2022/11/15 03:37:29;;;;;;;27.55;20.48;;;12.50;92.40;;;;;;4983540;28;20035;-74
2022/11/15 03:39:55;;;;;;;27.63;20.40;;;12.50;92.40;;;;;;4993964;28;20471;-74
2022/11/15 03:42:39;;;;;;;23.77;18.98;;;12.50;92.30;;;;;;4991163;28;20035;-74
2022/11/15 03:45:08;;;;;;;24.63;18.38;;;;;;;;;;4980798;28;20366;-74
2022/11/15 03:47:49;;;;;;;23.77;19.27;;;12.50;92.10;;;;;;4990516;28;20046;-74
2022/11/15 03:50:18;;;;;;;25.38;19.23;;;12.50;92.30;;;;;;4989404;28;20459;-74
2022/11/15 03:52:46;;;;;;;24.92;19.20;;;12.50;92.00;;;;;;4990567;28;20475;-74
2022/11/15 03:55:16;;;;;;;27.88;19.98;;;12.40;92.10;;;;;;4993198;28;20061;-74
2022/11/15 03:57:42;;;;;;;24.00;18.83;;;12.40;92.20;;;;;;4992798;28;20076;-74
2022/11/15 04:00:09;;;;;;;27.95;19.25;;;12.30;92.20;;;;;;4990330;28;20058;-74
2022/11/15 04:02:34;;;;;;;22.70;17.70;;;12.30;92.30;;;;;;4992552;28;20139;-73
2022/11/15 04:05:00;;;;;;;24.48;18.63;;;12.30;92.40;;;;;;4991596;28;20479;-72
2022/11/15 04:07:26;;;;;;;28.90;20.55;;;12.30;92.40;;;;;;4993478;28;20053;-73
2022/11/15 04:10:05;;;;;;;26.92;19.25;;;12.20;92.50;;;;;;4993685;28;20486;-73
2022/11/15 04:12:35;;;;;;;25.42;19.08;;;12.20;92.50;;;;;;4990471;28;20034;-73
2022/11/15 04:15:07;;;;;;;24.08;18.42;;;12.20;92.50;;;;;;4993012;28;20114;-73
2022/11/15 04:17:38;;;;;;;30.40;22.58;;;12.10;92.50;;;;;;4987194;28;20043;-73
2022/11/15 04:25:37;;;;;;;23.98;18.98;;;12.00;92.60;;;;;;4985913;28;20080;-75
2022/11/15 04:28:03;;;;;;;25.58;19.20;;;12.00;92.70;;;;;;4993012;28;20082;-75
2022/11/15 04:30:28;;;;;;;27.05;20.30;;;12.00;92.60;;;;;;4993020;28;20093;-75
2022/11/15 04:32:54;;;;;;;25.63;18.13;;;12.10;92.60;;;;;;4993244;28;20403;-74
2022/11/15 04:35:19;;;;;;;25.35;17.17;;;12.20;92.40;;;;;;4991745;28;20031;-74
2022/11/15 04:37:45;;;;;;;27.10;21.10;;;12.20;92.30;;;;;;4992371;28;20030;-75
2022/11/15 04:40:11;;;;;;;25.20;19.88;;;12.10;92.30;;;;;;4992742;28;20157;-74
2022/11/15 04:42:37;;;;;;;24.65;17.75;;;12.10;92.10;;;;;;4992547;28;20093;-79
2022/11/15 04:45:03;;;;;;;26.35;20.05;;;12.00;92.40;;;;;;4979476;28;20443;-79
2022/11/15 04:47:29;;;;;;;24.27;18.80;;;11.90;92.40;;;;;;4991802;28;20422;-79
2022/11/15 04:49:55;;;;;;;24.70;18.83;;;11.80;92.50;;;;;;4987779;28;20108;-79
2022/11/15 04:52:20;;;;;;;25.60;18.67;;;11.80;92.70;;;;;;4993048;28;20058;-78
2022/11/15 04:54:46;;;;;;;28.88;22.88;;;11.90;92.70;;;;;;4996410;28;20042;-78
2022/11/15 04:57:11;;;;;;;23.55;18.40;;;11.70;92.80;;;;;;4996049;28;20062;-78
2022/11/15 04:59:37;;;;;;;25.90;19.83;;;11.60;93.00;;;;;;4996982;28;20610;-78
2022/11/15 05:02:03;;;;;;;33.05;24.75;;;11.70;93.00;;;;;;4996990;28;20026;-77
2022/11/15 05:04:28;;;;;;;25.02;18.40;;;11.60;93.00;;;;;;4995590;28;20050;-77
2022/11/15 05:06:54;;;;;;;31.05;22.95;;;11.60;93.00;;;;;;4996290;28;20023;-77
2022/11/15 05:09:20;;;;;;;24.52;18.30;;;11.50;93.10;;;;;;4994470;28;20076;-78
2022/11/15 05:11:46;;;;;;;25.70;18.42;;;11.50;93.10;;;;;;4995772;28;20031;-77
2022/11/15 05:14:12;;;;;;;26.30;18.90;;;11.60;93.00;;;;;;4987325;28;20422;-78
2022/11/15 05:16:38;;;;;;;24.40;16.95;;;11.60;93.00;;;;;;4994728;28;20066;-78
2022/11/15 05:19:04;;;;;;;23.75;18.27;;;11.70;92.80;;;;;;4991947;28;20106;-78
2022/11/15 05:21:31;;;;;;;22.23;17.75;;;11.70;92.80;;;;;;4995527;28;20049;-79
2022/11/15 05:23:57;;;;;;;27.20;19.33;;;11.70;92.70;;;;;;4995938;28;20439;-78
2022/11/15 05:26:23;;;;;;;24.95;19.10;;;11.80;92.80;;;;;;4981796;28;20029;-78
2022/11/15 05:28:53;;;;;;;24.27;17.50;;;11.80;92.70;;;;;;4996488;28;20374;-79
2022/11/15 05:31:19;;;;;;;24.40;18.27;;;;;;;;;;4989915;28;20101;-83
2022/11/15 05:33:45;;;;;;;23.50;17.50;;;11.80;92.50;;;;;;4995166;28;20033;-82
2022/11/15 05:36:45;;;;;;;23.33;18.10;;;11.80;92.40;;;;;;4995754;28;20030;-82
2022/11/15 05:39:11;;;;;;;26.05;18.73;;;;;;;;;;4984120;28;20023;-82
2022/11/15 05:41:50;;;;;;;24.27;17.95;;;11.70;92.40;;;;;;4996426;28;20070;-84
2022/11/15 05:44:20;;;;;;;23.08;18.30;;;11.80;92.60;;;;;;4984618;28;20037;-85
2022/11/15 05:46:48;;;;;;;;;;;11.80;92.60;;;;;;4989499;28;20759;-84
2022/11/15 05:49:16;;;;;;;24.38;17.88;;;11.70;92.50;;;;;;4992644;28;20385;-85
2022/11/15 05:51:44;;;;;;;26.42;18.67;;;11.60;92.40;;;;;;4988594;28;20077;-84
2022/11/15 05:54:10;;;;;;;26.05;19.40;;;11.70;92.80;;;;;;4994924;28;20035;-84
2022/11/15 05:56:36;;;;;;;27.05;19.05;;;11.60;92.70;;;;;;4995555;28;20092;-83
2022/11/15 05:59:02;;;;;;;25.20;17.98;;;;;;;;;;4995226;28;20042;-83
2022/11/15 06:01:29;;;;;;;21.90;17.75;;;11.50;92.70;;;;;;4995215;28;20034;-85
2022/11/15 06:03:54;;;;;;;29.38;21.60;;;11.50;92.80;;;;;;4994760;28;20097;-84
2022/11/15 06:06:20;;;;;;;23.45;17.65;;;11.50;92.80;;;;;;4993194;28;20132;-87
2022/11/15 06:08:47;;;;;;;22.00;17.70;;;11.50;92.80;;;;;;4996072;28;20137;-88
2022/11/15 06:11:13;;;;;;;23.40;17.38;;;;;;;;;;4995933;28;20029;-85
2022/11/15 06:13:39;;;;;;;27.00;18.70;;;11.50;92.50;;;;;;4995665;28;20483;-86
2022/11/15 06:16:05;;;;;;;28.40;18.13;;;11.40;92.80;;;;;;4995663;28;20029;-89
2022/11/15 06:18:35;;;;;;;24.25;17.88;;;11.00;92.80;;;;;;4982852;28;20038;-89
2022/11/15 06:21:01;;;;;;;24.13;17.73;;;11.50;92.80;;;;;;4994857;28;20022;-91
2022/11/15 06:23:27;;;;;;;24.35;17.45;;;11.50;92.80;;;;;;4996039;28;20125;-89
2022/11/15 06:26:06;;;;;;;24.73;18.23;;;11.40;92.50;;;;;;4995579;28;20084;-89
2022/11/15 06:28:37;;;;;;;23.33;16.48;;;11.40;92.60;;;;;;4994490;28;20407;-89
2022/11/15 06:31:05;;;;;;;25.55;17.75;;;11.40;92.80;;;;;;4995070;28;20093;-86
2022/11/15 06:33:38;;;;;;;23.52;16.92;;;11.40;92.50;;;;;;4995790;28;20360;-92
2022/11/15 06:36:05;;;;;;;21.10;15.15;;;11.50;92.80;;;;;;4995169;28;20053;-91
2022/11/15 06:38:31;;;;;;;21.50;15.00;;;;;;;;;;4994070;28;20058;-87
2022/11/15 06:41:05;;;;;;;19.40;15.73;;;11.60;91.80;;;;;;4995042;28;20030;-85
2022/11/15 06:43:31;;;;;;;20.55;14.90;;;11.60;92.00;;;;;;4994453;28;20537;-85
2022/11/15 06:46:01;;;;;;;20.02;15.00;;;11.60;91.90;;;;;;4991879;28;20030;-83
2022/11/15 06:48:28;;;;;;;22.75;15.93;;;11.70;91.80;;;;;;4994632;28;20491;-85
2022/11/15 06:50:55;;;;;;;21.42;15.13;;;11.60;91.70;;;;;;4994785;28;20018;-85
2022/11/15 06:53:21;;;;;;;17.55;14.02;;;11.60;91.70;;;;;;4994652;28;20054;-86
2022/11/15 06:55:47;;;;;;;17.38;13.38;;;11.40;92.00;;;;;;4994059;28;21530;-83
2022/11/15 06:58:13;;;;;;;15.55;12.55;;;11.40;92.30;;;;;;4994815;28;20037;-89
2022/11/15 07:00:40;;;;;;;17.08;11.88;;;11.40;92.00;;;;;;4993218;28;20027;-86
2022/11/15 07:03:06;;;;;;;16.13;13.05;;;11.30;91.80;;;;;;4994567;28;20035;-88
2022/11/15 07:05:32;;;;;;;18.73;14.63;;;11.30;92.00;;;;;;4994170;28;20096;-88
2022/11/15 07:07:58;;;;;;;19.13;13.45;;;11.20;92.00;;;;;;4994118;28;20088;-84
2022/11/15 07:10:25;;;;;;;15.07;12.27;;;11.10;92.10;;;;;;4995970;28;20022;-88
2022/11/15 07:12:51;;;;;;;36.17;16.98;;;11.10;92.20;;;;;;4995780;28;20029;-89
2022/11/15 07:15:19;;;;;;;16.15;12.75;;;11.00;92.10;;;;;;4997341;28;20390;-89
2022/11/15 07:17:45;;;;;;;44.75;17.00;;;10.80;92.20;;;;;;5006389;28;20089;-90
2022/11/15 07:20:12;;;;;;;14.57;11.82;;;10.80;92.40;;;;;;5010929;28;20029;-87
2022/11/15 07:22:39;;;;;;;14.45;11.63;;;10.70;92.60;;;;;;5002400;28;20045;-88
2022/11/15 07:25:05;;;;;;;17.13;13.02;;;10.80;92.70;;;;;;5005729;28;20029;-88
2022/11/15 07:27:31;;;;;;;19.75;13.48;;;10.80;92.80;;;;;;4986651;28;20597;-88
2022/11/15 07:29:56;;;;;;;18.77;13.20;;;10.90;92.80;;;;;;4987202;28;20030;-86
2022/11/15 07:32:22;;;;;;;25.20;14.70;;;10.80;92.60;;;;;;4986031;28;20491;-87
2022/11/15 07:34:48;;;;;;;34.97;19.48;;;10.80;92.70;;;;;;4996066;28;20046;-87
2022/11/15 07:37:14;;;;;;;19.80;13.98;;;10.80;92.50;;;;;;4994727;28;20042;-86
2022/11/15 07:39:40;;;;;;;23.48;14.80;;;;;;;;;;4995574;28;20077;-86
2022/11/15 07:44:50;;;;;;;20.83;14.80;;;10.90;92.60;;;;;;4991698;28;20049;-90
2022/11/15 07:47:16;;;;;;;20.88;14.13;;;11.10;92.30;;;;;;4996917;28;20019;-88
2022/11/15 07:49:42;;;;;;;21.35;14.50;;;11.10;92.30;;;;;;4994478;28;20084;-87
2022/11/15 07:52:09;;;;;;;22.75;14.77;;;;;;;;;;4998797;28;20026;-84
2022/11/15 07:54:36;;;;;;;18.40;12.27;;;10.90;92.20;;;;;;4995826;28;20394;-88
2022/11/15 07:57:02;;;;;;;17.83;12.50;;;11.10;92.40;;;;;;4994233;28;20030;-91
2022/11/15 07:59:27;;;;;;;18.23;12.82;;;11.10;92.30;;;;;;4998487;28;20065;-90
2022/11/15 08:01:54;;;;;;;17.00;12.43;;;11.00;92.20;;;;;;4997497;28;20030;-91
2022/11/15 08:04:19;;;;;;;22.40;13.35;;;11.10;92.50;;;;;;4995435;28;20060;-90
2022/11/15 08:06:45;;;;;;;20.05;14.25;;;11.20;92.50;;;;;;4995573;28;20530;-92
2022/11/15 08:09:11;;;;;;;14.88;11.45;;;11.10;92.30;;;;;;4997001;28;20026;-89
2022/11/15 08:11:37;;;;;;;18.33;12.15;;;11.10;92.40;;;;;;4995519;28;20041;-91
2022/11/15 08:14:03;;;;;;;15.13;11.55;;;11.10;92.50;;;;;;4993968;28;20054;-89
2022/11/15 08:16:29;;;;;;;15.02;11.95;;;11.10;92.40;;;;;;4991805;28;20029;-89
2022/11/15 08:18:54;;;;;;;20.70;14.57;;;11.10;92.30;;;;;;4974873;28;20111;-89
2022/11/15 08:21:21;;;;;;;27.38;14.23;;;11.10;92.50;;;;;;4976096;28;20031;-88
2022/11/15 08:23:47;;;;;;;20.15;13.60;;;11.10;92.30;;;;;;4976218;28;20034;-86
2022/11/15 08:26:13;;;;;;;24.02;15.02;;;11.00;92.20;;;;;;4975524;28;20089;-87
2022/11/15 08:28:39;;;;;;;21.52;15.45;;;11.00;92.40;;;;;;4985029;28;20026;-92
2022/11/15 08:31:05;;;;;;;21.83;14.45;;;;;;;;;;4995814;28;20042;-91
2022/11/15 08:33:32;;;;;;;20.77;15.40;;;11.10;92.50;;;;;;4979846;28;20545;-93
2022/11/15 08:36:00;;;;;;;20.85;15.63;;;11.20;92.50;;;;;;4977686;28;20027;-89
2022/11/15 08:38:28;;;;;;;21.25;15.05;;;11.20;92.70;;;;;;4975820;28;20388;-90
2022/11/15 08:41:02;;;;;;;28.58;17.80;;;11.10;92.40;;;;;;4981328;28;20441;-90
2022/11/15 08:43:29;;;;;;;27.65;19.23;;;;;;;;;;4992063;28;20113;-91
2022/11/15 08:45:58;;;;;;;20.13;15.70;;;11.00;92.50;;;;;;4981290;28;20026;-95
2022/11/15 08:48:24;;;;;;;18.65;13.57;;;11.00;92.50;;;;;;4975730;28;20026;-95
2022/11/15 08:50:55;;;;;;;14.65;11.90;;;11.10;92.80;;;;;;4992601;28;20025;-94
2022/11/15 08:53:20;;;;;;;14.45;11.23;;;11.20;92.70;;;;;;4990696;28;20034;-91
2022/11/15 08:55:46;;;;;;;15.50;12.00;;;;;;;;;;4991375;28;20098;-90
2022/11/15 08:58:12;;;;;;;12.93;10.52;;;11.30;92.50;;;;;;4986450;28;20043;-89
2022/11/15 09:00:38;;;;;;;18.50;10.68;;;11.40;92.60;;;;;;4979810;28;20030;-90
2022/11/15 09:03:05;;;;;;;16.00;11.07;;;11.60;92.20;;;;;;4992551;28;20072;-91
2022/11/15 09:05:31;;;;;;;13.10;10.63;;;11.50;92.10;;;;;;4993598;28;20037;-87
2022/11/15 09:07:57;;;;;;;13.48;10.85;;;11.60;92.10;;;;;;4989224;28;20030;-90
2022/11/15 09:10:23;;;;;;;12.73;10.52;;;11.60;92.10;;;;;;4985731;28;20022;-90
2022/11/15 09:12:48;;;;;;;13.20;11.20;;;11.80;92.50;;;;;;4989851;28;20022;-90
2022/11/15 09:15:15;;;;;;;14.18;11.23;;;11.90;92.40;;;;;;4992321;28;20032;-88
2022/11/15 09:17:45;;;;;;;14.35;11.40;;;12.10;91.80;;;;;;4993721;28;20108;-89
2022/11/15 09:20:11;;;;;;;14.43;10.75;;;;;;;;;;4994043;28;20049;-88
2022/11/15 09:22:38;;;;;;;14.27;11.88;;;12.20;91.80;;;;;;4977965;28;20084;-87
2022/11/15 09:25:05;;;;;;;13.27;11.75;;;12.20;91.40;;;;;;4990288;28;20034;-86
2022/11/15 09:27:32;;;;;;;12.18;9.82;;;12.20;91.60;;;;;;4982207;28;20022;-87
2022/11/15 09:29:57;;;;;;;12.32;10.48;;;12.10;91.60;;;;;;4983709;28;20030;-87
2022/11/15 09:32:23;;;;;;;12.90;10.98;;;12.10;91.90;;;;;;4989017;28;20046;-86
2022/11/15 09:34:50;;;;;;;13.20;11.07;;;12.30;91.70;;;;;;4989888;28;20026;-83
2022/11/15 09:37:16;;;;;;;12.73;10.35;;;12.30;91.80;;;;;;4992975;28;20030;-87
2022/11/15 09:39:41;;;;;;;12.95;9.85;;;12.40;91.80;;;;;;4981239;28;20049;-88
2022/11/15 09:42:25;;;;;;;11.40;10.20;;;12.40;91.70;;;;;;4982461;28;20046;-91
2022/11/15 09:45:19;;;;;;;17.50;13.27;;;12.50;91.60;;;;;;4993032;28;20030;-86
2022/11/15 09:48:03;;;;;;;15.43;11.70;;;12.50;91.50;;;;;;4989504;28;20018;-86
2022/11/15 09:50:32;;;;;;;16.48;11.82;;;12.50;91.80;;;;;;4988470;28;20434;-88
2022/11/15 09:52:58;;;;;;;13.85;11.38;;;12.70;91.90;;;;;;4994108;28;20026;-90
2022/11/15 09:55:40;;;;;;;16.10;13.50;;;12.80;91.60;;;;;;4996280;28;20076;-90
2022/11/15 09:58:29;;;;;;;13.60;11.43;;;12.90;91.10;;;;;;4990232;28;20033;-88
2022/11/15 10:00:57;;;;;;;14.93;12.05;;;13.00;91.20;;;;;;4991523;28;20725;-88
2022/11/15 10:03:31;;;;;;;15.05;11.75;;;13.00;91.40;;;;;;4996502;28;20034;-88
2022/11/15 10:06:04;;;;;;;17.95;12.15;;;13.10;91.30;;;;;;4995660;28;20030;-88
2022/11/15 10:09:02;;;;;;;13.65;11.00;;;13.20;91.00;;;;;;4995896;28;20498;-88
2022/11/15 10:11:31;;;;;;;13.52;11.27;;;13.10;90.90;;;;;;4976987;28;20065;-87
2022/11/15 10:14:01;;;;;;;15.45;11.90;;;13.20;90.90;;;;;;4994257;28;20041;-90
2022/11/15 10:16:51;;;;;;;16.42;13.60;;;13.30;90.90;;;;;;4988719;28;20510;-89
2022/11/15 10:19:35;;;;;;;18.63;13.43;;;13.20;90.50;;;;;;4989505;28;20085;-86
2022/11/15 10:22:16;;;;;;;15.30;12.88;;;13.40;90.70;;;;;;4990550;28;20493;-84
2022/11/15 10:24:43;;;;;;;17.50;13.30;;;;;;;;;;4986769;28;20129;-86
2022/11/15 10:27:17;;;;;;;16.42;12.70;;;13.40;90.60;;;;;;4987820;28;20035;-88
2022/11/15 10:29:49;;;;;;;18.30;14.25;;;13.50;90.50;;;;;;4983864;28;20495;-88
2022/11/15 10:32:17;;;;;;;17.48;13.35;;;13.60;90.60;;;;;;4983492;28;20074;-88
2022/11/15 10:34:43;;;;;;;16.33;12.43;;;;;;;;;;4988773;28;20101;-87
2022/11/15 10:37:09;;;;;;;16.48;13.23;;;13.60;90.60;;;;;;4986702;28;20038;-87
2022/11/15 10:39:35;;;;;;;15.65;13.13;;;13.70;90.50;;;;;;4981687;28;20032;-89
2022/11/15 10:42:26;;;;;;;16.50;12.43;;;13.80;90.30;;;;;;4986750;28;20030;-91
2022/11/15 10:44:52;;;;;;;17.83;13.35;;;14.10;90.30;;;;;;4997563;28;20101;-93
2022/11/15 10:47:30;;;;;;;21.98;16.63;;;14.10;88.50;;;;;;4997509;28;20026;-90
2022/11/15 10:50:27;;;;;;;17.52;13.40;;;13.90;89.40;;;;;;4995303;28;20109;-90
2022/11/15 10:52:53;;;;;;;15.13;12.18;;;13.80;89.70;;;;;;4995028;28;20129;-91
2022/11/15 10:55:30;;;;;;;17.73;13.75;;;13.80;90.20;;;;;;4997323;28;20022;-84
2022/11/15 10:58:21;;;;;;;15.68;12.50;;;13.80;90.30;;;;;;4993021;28;20023;-86
2022/11/15 11:00:47;;;;;;;18.60;13.18;;;13.80;90.30;;;;;;4993876;28;20054;-86
2022/11/15 11:03:38;;;;;;;15.65;12.98;;;13.80;90.30;;;;;;4995298;28;20062;-86
2022/11/15 11:06:16;;;;;;;;;;;13.80;89.90;;;;;;4994936;28;20427;-88
2022/11/15 11:09:21;;;;;;;16.92;13.30;;;13.90;90.20;;;;;;4995332;28;19910;-86
2022/11/15 11:11:51;;;;;;;19.88;14.73;;;13.90;90.10;;;;;;4995408;28;20034;-87
2022/11/15 11:14:27;;;;;;;19.30;14.32;;;13.90;90.30;;;;;;4990041;28;20052;-87
2022/11/15 11:16:58;;;;;;;23.35;15.02;;;13.90;90.20;;;;;;4993628;28;20472;-87
2022/11/15 11:20:01;;;;;;;19.77;15.10;;;13.90;90.30;;;;;;4995551;28;20026;-89
2022/11/15 11:22:27;;;;;;;17.92;14.90;;;14.00;90.10;;;;;;4996373;28;20478;-88
2022/11/15 11:24:55;;;;;;;21.20;15.43;;;14.00;90.30;;;;;;4993632;28;20027;-87
2022/11/15 11:27:42;;;;;;;20.02;15.30;;;14.20;90.30;;;;;;4976177;28;20027;-85
2022/11/15 11:30:21;;;;;;;21.75;16.02;;;14.30;89.90;;;;;;4986854;28;20585;-89
2022/11/15 11:33:15;;;;;;;22.08;15.05;;;14.30;90.00;;;;;;4979533;28;20471;-89
2022/11/15 11:35:50;;;;;;;21.65;15.32;;;14.30;89.70;;;;;;4987936;28;20027;-90
2022/11/15 11:38:37;;;;;;;18.90;14.98;;;14.30;89.90;;;;;;4988237;28;20702;-91
2022/11/15 11:41:23;;;;;;;24.00;15.57;;;14.30;89.70;;;;;;5001416;28;20030;-89
2022/11/15 11:44:18;;;;;;;27.58;19.70;;;14.30;89.70;;;;;;4999742;28;20034;-89
2022/11/15 11:47:00;;;;;;;22.13;16.20;;;14.20;90.00;;;;;;4994245;28;20536;-88
2022/11/15 11:49:39;;;;;;;20.73;15.77;;;14.10;89.90;;;;;;4996287;28;20093;-87
2022/11/15 11:52:04;;;;;;;24.98;17.65;;;14.10;90.10;;;;;;4996232;28;20026;-88
2022/11/15 11:54:42;;;;;;;23.15;17.67;;;14.10;90.30;;;;;;4995318;28;20036;-87
2022/11/15 11:57:23;;;;;;;24.13;17.38;;;14.00;90.30;;;;;;4990898;28;20033;-91
2022/11/15 12:00:12;;;;;;;21.42;16.77;;;14.00;90.40;;;;;;4994278;28;20038;-87
2022/11/15 12:03:10;;;;;;;28.80;20.23;;;14.00;90.60;;;;;;4994433;28;20041;-87
2022/11/15 12:05:49;;;;;;;22.52;16.75;;;13.90;90.50;;;;;;4995262;28;20042;-87
2022/11/15 12:08:33;;;;;;;26.42;18.70;;;13.90;90.80;;;;;;4994749;28;20542;-87
2022/11/15 12:11:29;;;;;;;20.35;16.45;;;13.90;90.80;;;;;;5001314;28;20041;-88
2022/11/15 12:14:00;;;;;;;19.75;16.13;;;14.10;90.60;;;;;;4988530;28;20113;-87
2022/11/15 12:29:58;;;;;;;23.75;17.42;;;14.60;90.00;;;;;;5082493;28;20417;-85
2022/11/15 12:32:29;;;;;;;24.48;16.55;;;14.50;89.80;;;;;;5080960;28;20024;-90
2022/11/15 12:34:56;;;;;;;19.90;15.05;;;14.50;90.10;;;;;;5075800;28;20027;-91
2022/11/15 12:37:44;;;;;;;19.15;15.98;;;14.30;90.00;;;;;;5082351;28;20415;-92
2022/11/15 12:40:22;;;;;;;20.00;16.48;;;14.30;90.20;;;;;;5074681;28;20013;-91
2022/11/15 12:42:59;;;;;;;22.08;16.63;;;;;;;;;;5086942;28;20024;-92
2022/11/15 12:45:33;;;;;;;21.33;16.83;;;14.20;90.30;;;;;;5087326;28;20043;-92
2022/11/15 12:48:17;;;;;;;22.15;17.30;;;14.20;90.30;;;;;;5082072;28;20037;-89
2022/11/15 12:50:54;;;;;;;22.38;16.65;;;14.20;90.30;;;;;;5082916;28;20039;-90
2022/11/15 12:53:27;;;;;;;21.35;16.27;;;14.20;90.40;;;;;;5091410;28;20028;-90
2022/11/15 12:56:17;;;;;;;19.70;16.73;;;14.20;90.60;;;;;;5086041;28;20020;-87
2022/11/15 12:58:45;;;;;;;23.60;17.55;;;14.10;90.60;;;;;;5078648;28;20020;-84
2022/11/15 13:01:35;;;;;;;19.85;16.38;;;14.00;90.60;;;;;;5082220;28;20017;-87
2022/11/15 13:04:18;;;;;;;24.23;18.35;;;14.00;90.60;;;;;;5082900;28;20028;-84
2022/11/15 13:06:47;;;;;;;23.52;17.92;;;14.00;90.90;;;;;;5082823;28;20013;-88
2022/11/15 13:09:37;;;;;;;25.35;17.80;;;14.00;91.00;;;;;;5080319;28;20462;-89
2022/11/15 13:12:14;;;;;;;24.38;18.50;;;14.00;91.00;;;;;;5081734;28;20352;-91
2022/11/15 13:14:52;;;;;;;25.30;18.77;;;13.90;91.10;;;;;;5082576;28;20029;-90
2022/11/15 13:17:30;;;;;;;27.52;20.85;;;13.90;91.20;;;;;;5084465;28;20518;-88
2022/11/15 13:20:15;;;;;;;24.85;18.70;;;;;;;;;;5081051;28;20024;-86